TAM3301 SBIZ-SBTE
Flight info
| Callsign | TAM3301 |
|---|---|
| Flight time | 1h 5m |
| Altitude | 35000 |
| Route | GEDIR DCT EDPUS DCT ESNOD DCT TE371 |
| Aircraft | A319/M-SDE3FGHIRWY/LB1 |
Departure
| Time | 2026-04-26 04:55 |
|---|---|
| Airport | Prefeito Renato Moreira Airport (SBIZ) |
Arrival
| Time | 2026-04-26 06:01 |
|---|---|
| Airport | Senador Petrônio Portela Airport (SBTE) |
| Time | Latitude | Longitude | Altitude | Speed | Heading |
|---|---|---|---|---|---|
| 2026-04-26 04:28 | -5.53184 | -47.45716 | 429 ft | 0 kts | 145° |
| 2026-04-26 04:45 | -5.53182 | -47.45718 | 437 ft | 1 kts | 145° |
| 2026-04-26 04:45 | -5.53167 | -47.45727 | 429 ft | 3 kts | 160° |
| 2026-04-26 04:46 | -5.53148 | -47.45731 | 432 ft | 3 kts | 193° |
| 2026-04-26 04:46 | -5.53134 | -47.45724 | 434 ft | 1 kts | 233° |
| 2026-04-26 04:46 | -5.53130 | -47.45720 | 425 ft | 0 kts | 233° |
| 2026-04-26 04:49 | -5.53141 | -47.45734 | 435 ft | 5 kts | 233° |
| 2026-04-26 04:50 | -5.53170 | -47.45773 | 430 ft | 8 kts | 238° |
| 2026-04-26 04:50 | -5.53141 | -47.45827 | 438 ft | 12 kts | 317° |
| 2026-04-26 04:50 | -5.53089 | -47.45864 | 430 ft | 16 kts | 326° |
| 2026-04-26 04:50 | -5.53088 | -47.45933 | 437 ft | 10 kts | 223° |
| 2026-04-26 04:51 | -5.53118 | -47.45979 | 435 ft | 13 kts | 238° |
| 2026-04-26 04:51 | -5.53182 | -47.46071 | 433 ft | 19 kts | 234° |
| 2026-04-26 04:51 | -5.53270 | -47.46191 | 434 ft | 24 kts | 234° |
| 2026-04-26 04:51 | -5.53378 | -47.46343 | 437 ft | 30 kts | 234° |
| 2026-04-26 04:52 | -5.53498 | -47.46509 | 434 ft | 21 kts | 233° |
| 2026-04-26 04:52 | -5.53557 | -47.46592 | 435 ft | 8 kts | 240° |
| 2026-04-26 04:52 | -5.53558 | -47.46651 | 438 ft | 9 kts | 252° |
| 2026-04-26 04:52 | -5.53596 | -47.46640 | 435 ft | 7 kts | 80° |
| 2026-04-26 04:53 | -5.53578 | -47.46617 | 436 ft | 0 kts | 54° |
| 2026-04-26 04:55 | -5.53554 | -47.46584 | 439 ft | 33 kts | 54° |
| 2026-04-26 04:55 | -5.53222 | -47.46129 | 434 ft | 126 kts | 54° |
| 2026-04-26 04:55 | -5.52614 | -47.45295 | 930 ft | 150 kts | 53° |
| 2026-04-26 04:55 | -5.52002 | -47.44453 | 1763 ft | 150 kts | 53° |
| 2026-04-26 04:56 | -5.51516 | -47.43487 | 2193 ft | 167 kts | 81° |
| 2026-04-26 04:56 | -5.51764 | -47.42277 | 2433 ft | 193 kts | 114° |
| 2026-04-26 04:56 | -5.52404 | -47.41017 | 2745 ft | 213 kts | 115° |
| 2026-04-26 04:56 | -5.53094 | -47.39620 | 3151 ft | 234 kts | 115° |
| 2026-04-26 04:57 | -5.53828 | -47.38116 | 3780 ft | 250 kts | 115° |
| 2026-04-26 04:57 | -5.54604 | -47.36512 | 4610 ft | 258 kts | 115° |
| 2026-04-26 04:57 | -5.55388 | -47.34881 | 5552 ft | 262 kts | 115° |
| 2026-04-26 04:57 | -5.56184 | -47.33220 | 6450 ft | 266 kts | 115° |
| 2026-04-26 04:58 | -5.56995 | -47.31530 | 7272 ft | 271 kts | 115° |
| 2026-04-26 04:58 | -5.57820 | -47.29809 | 8123 ft | 275 kts | 115° |
| 2026-04-26 04:58 | -5.58656 | -47.28062 | 8949 ft | 280 kts | 115° |
| 2026-04-26 04:58 | -5.59504 | -47.26289 | 9783 ft | 285 kts | 115° |
| 2026-04-26 04:59 | -5.60379 | -47.24460 | 10280 ft | 300 kts | 115° |
| 2026-04-26 04:59 | -5.61315 | -47.22502 | 10606 ft | 319 kts | 115° |
| 2026-04-26 04:59 | -5.62288 | -47.20468 | 11225 ft | 326 kts | 115° |
| 2026-04-26 04:59 | -5.63275 | -47.18406 | 11916 ft | 330 kts | 115° |
| 2026-04-26 05:00 | -5.64270 | -47.16323 | 12622 ft | 333 kts | 115° |
| 2026-04-26 05:00 | -5.65279 | -47.14215 | 13331 ft | 336 kts | 115° |
| 2026-04-26 05:00 | -5.66300 | -47.12087 | 13996 ft | 340 kts | 115° |
| 2026-04-26 05:00 | -5.67331 | -47.09946 | 14588 ft | 343 kts | 115° |
| 2026-04-26 05:01 | -5.68374 | -47.07775 | 15191 ft | 347 kts | 115° |
| 2026-04-26 05:01 | -5.69424 | -47.05584 | 15775 ft | 350 kts | 115° |
| 2026-04-26 05:01 | -5.70482 | -47.03368 | 16356 ft | 354 kts | 115° |
| 2026-04-26 05:01 | -5.71550 | -47.01132 | 16943 ft | 357 kts | 115° |
| 2026-04-26 05:02 | -5.72631 | -46.98872 | 17519 ft | 361 kts | 115° |
| 2026-04-26 05:02 | -5.73722 | -46.96592 | 18101 ft | 364 kts | 115° |
| 2026-04-26 05:02 | -5.74824 | -46.94291 | 18604 ft | 368 kts | 115° |
| 2026-04-26 05:02 | -5.75934 | -46.91969 | 19099 ft | 370 kts | 115° |
| 2026-04-26 05:03 | -5.77053 | -46.89625 | 19598 ft | 373 kts | 115° |
| 2026-04-26 05:03 | -5.78180 | -46.87267 | 20091 ft | 376 kts | 115° |
| 2026-04-26 05:03 | -5.79318 | -46.84885 | 20586 ft | 379 kts | 115° |
| 2026-04-26 05:03 | -5.80460 | -46.82494 | 21063 ft | 382 kts | 115° |
| 2026-04-26 05:04 | -5.81614 | -46.80076 | 21543 ft | 385 kts | 115° |
| 2026-04-26 05:04 | -5.82773 | -46.77643 | 22016 ft | 388 kts | 115° |
| 2026-04-26 05:04 | -5.83943 | -46.75195 | 22485 ft | 391 kts | 115° |
| 2026-04-26 05:04 | -5.85124 | -46.72722 | 22940 ft | 394 kts | 114° |
| 2026-04-26 05:05 | -5.86293 | -46.70268 | 23395 ft | 397 kts | 114° |
| 2026-04-26 05:05 | -5.87505 | -46.67727 | 23799 ft | 399 kts | 114° |
| 2026-04-26 05:05 | -5.88708 | -46.65207 | 24179 ft | 402 kts | 115° |
| 2026-04-26 05:05 | -5.89920 | -46.62672 | 24559 ft | 404 kts | 115° |
| 2026-04-26 05:06 | -5.91138 | -46.60119 | 24940 ft | 406 kts | 115° |
| 2026-04-26 05:06 | -5.92352 | -46.57552 | 25318 ft | 408 kts | 113° |
| 2026-04-26 05:06 | -5.93262 | -46.54851 | 25685 ft | 409 kts | 102° |
| 2026-04-26 05:06 | -5.93658 | -46.52019 | 26054 ft | 411 kts | 92° |
| 2026-04-26 05:07 | -5.93649 | -46.49141 | 26416 ft | 413 kts | 89° |
| 2026-04-26 05:07 | -5.93615 | -46.46250 | 26780 ft | 415 kts | 89° |
| 2026-04-26 05:07 | -5.93586 | -46.43344 | 27136 ft | 417 kts | 89° |
| 2026-04-26 05:07 | -5.93561 | -46.40421 | 27485 ft | 420 kts | 89° |
| 2026-04-26 05:08 | -5.93541 | -46.37479 | 27838 ft | 422 kts | 89° |
| 2026-04-26 05:08 | -5.93518 | -46.34527 | 28191 ft | 424 kts | 89° |
| 2026-04-26 05:08 | -5.93493 | -46.31562 | 28543 ft | 426 kts | 89° |
| 2026-04-26 05:08 | -5.93467 | -46.28580 | 28901 ft | 428 kts | 89° |
| 2026-04-26 05:09 | -5.93440 | -46.25581 | 29247 ft | 430 kts | 89° |
| 2026-04-26 05:09 | -5.93410 | -46.22565 | 29591 ft | 433 kts | 89° |
| 2026-04-26 05:09 | -5.93377 | -46.19536 | 29937 ft | 435 kts | 89° |
| 2026-04-26 05:09 | -5.93345 | -46.16488 | 30233 ft | 437 kts | 89° |
| 2026-04-26 05:10 | -5.93316 | -46.13425 | 30528 ft | 439 kts | 89° |
| 2026-04-26 05:10 | -5.93288 | -46.10354 | 30820 ft | 441 kts | 89° |
| 2026-04-26 05:10 | -5.93258 | -46.07271 | 31115 ft | 442 kts | 89° |
| 2026-04-26 05:10 | -5.93230 | -46.04175 | 31403 ft | 444 kts | 89° |
| 2026-04-26 05:11 | -5.93203 | -46.01071 | 31712 ft | 445 kts | 89° |
| 2026-04-26 05:11 | -5.93173 | -45.97970 | 32132 ft | 443 kts | 89° |
| 2026-04-26 05:11 | -5.93141 | -45.94879 | 32561 ft | 442 kts | 89° |
| 2026-04-26 05:11 | -5.93110 | -45.91801 | 32998 ft | 440 kts | 89° |
| 2026-04-26 05:12 | -5.93082 | -45.88734 | 33438 ft | 439 kts | 89° |
| 2026-04-26 05:12 | -5.93054 | -45.85672 | 33889 ft | 437 kts | 89° |
| 2026-04-26 05:12 | -5.93024 | -45.82629 | 34296 ft | 436 kts | 89° |
| 2026-04-26 05:12 | -5.92993 | -45.79590 | 34665 ft | 434 kts | 89° |
| 2026-04-26 05:13 | -5.92960 | -45.76553 | 34890 ft | 434 kts | 89° |
| 2026-04-26 05:13 | -5.92927 | -45.73543 | 34943 ft | 427 kts | 89° |
| 2026-04-26 05:13 | -5.92863 | -45.67648 | 34944 ft | 420 kts | 89° |
| 2026-04-26 05:14 | -5.92805 | -45.61785 | 34946 ft | 419 kts | 89° |
| 2026-04-26 05:14 | -5.92742 | -45.55934 | 34948 ft | 419 kts | 89° |
| 2026-04-26 05:15 | -5.92677 | -45.50082 | 34944 ft | 419 kts | 89° |
| 2026-04-26 05:15 | -5.92612 | -45.44231 | 34942 ft | 419 kts | 89° |
| 2026-04-26 05:16 | -5.92551 | -45.38374 | 34941 ft | 419 kts | 89° |
| 2026-04-26 05:16 | -5.92495 | -45.32526 | 34939 ft | 419 kts | 89° |
| 2026-04-26 05:17 | -5.92430 | -45.26678 | 34940 ft | 419 kts | 89° |
| 2026-04-26 05:17 | -5.92358 | -45.20829 | 34941 ft | 419 kts | 89° |
| 2026-04-26 05:18 | -5.92299 | -45.14972 | 34937 ft | 419 kts | 90° |
| 2026-04-26 05:18 | -5.92360 | -45.09123 | 34941 ft | 419 kts | 91° |
| 2026-04-26 05:19 | -5.92479 | -45.03267 | 34940 ft | 419 kts | 91° |
| 2026-04-26 05:19 | -5.92588 | -44.97418 | 34937 ft | 419 kts | 91° |
| 2026-04-26 05:20 | -5.92672 | -44.91571 | 34935 ft | 419 kts | 91° |
| 2026-04-26 05:20 | -5.92753 | -44.85723 | 34936 ft | 419 kts | 91° |
| 2026-04-26 05:21 | -5.92832 | -44.79867 | 34935 ft | 419 kts | 91° |
| 2026-04-26 05:21 | -5.92908 | -44.74017 | 34938 ft | 419 kts | 91° |
| 2026-04-26 05:22 | -5.92995 | -44.68162 | 34939 ft | 419 kts | 91° |
| 2026-04-26 05:22 | -5.93079 | -44.62309 | 34938 ft | 419 kts | 91° |
| 2026-04-26 05:23 | -5.93153 | -44.56450 | 34942 ft | 419 kts | 91° |
| 2026-04-26 05:23 | -5.93240 | -44.50590 | 34948 ft | 420 kts | 91° |
| 2026-04-26 05:24 | -5.93323 | -44.44732 | 34948 ft | 420 kts | 91° |
| 2026-04-26 05:24 | -5.93392 | -44.38862 | 34950 ft | 420 kts | 91° |
| 2026-04-26 05:25 | -5.93471 | -44.32998 | 34949 ft | 420 kts | 91° |
| 2026-04-26 05:25 | -5.93548 | -44.27144 | 34946 ft | 416 kts | 91° |
| 2026-04-26 05:26 | -5.93585 | -44.24276 | 34947 ft | 404 kts | 91° |
| 2026-04-26 05:26 | -5.93623 | -44.21505 | 34947 ft | 391 kts | 91° |
| 2026-04-26 05:26 | -5.93793 | -44.18822 | 34946 ft | 380 kts | 101° |
| 2026-04-26 05:26 | -5.94640 | -44.16341 | 34949 ft | 376 kts | 118° |
| 2026-04-26 05:27 | -5.96172 | -44.14226 | 34950 ft | 376 kts | 135° |
| 2026-04-26 05:27 | -5.98271 | -44.12653 | 34952 ft | 379 kts | 152° |
| 2026-04-26 05:27 | -6.00762 | -44.11784 | 34948 ft | 382 kts | 169° |
| 2026-04-26 05:27 | -6.03422 | -44.11719 | 34946 ft | 387 kts | 187° |
| 2026-04-26 05:28 | -6.06010 | -44.12486 | 34949 ft | 391 kts | 205° |
| 2026-04-26 05:28 | -6.08260 | -44.14023 | 34952 ft | 395 kts | 223° |
| 2026-04-26 05:28 | -6.09936 | -44.16212 | 34952 ft | 399 kts | 242° |
| 2026-04-26 05:28 | -6.10853 | -44.18832 | 34950 ft | 400 kts | 261° |
| 2026-04-26 05:29 | -6.11129 | -44.24412 | 34934 ft | 401 kts | 270° |
| 2026-04-26 05:29 | -6.11032 | -44.29071 | 34933 ft | 402 kts | 271° |
| 2026-04-26 05:30 | -6.10792 | -44.32779 | 34927 ft | 402 kts | 283° |
| 2026-04-26 05:30 | -6.09831 | -44.35429 | 34926 ft | 399 kts | 301° |
| 2026-04-26 05:30 | -6.08787 | -44.36941 | 34922 ft | 397 kts | 314° |
| 2026-04-26 05:30 | -6.06702 | -44.38721 | 34919 ft | 393 kts | 332° |
| 2026-04-26 05:31 | -6.04202 | -44.39758 | 34923 ft | 388 kts | 351° |
| 2026-04-26 05:31 | -6.01545 | -44.39967 | 34916 ft | 382 kts | 8° |
| 2026-04-26 05:31 | -5.98986 | -44.39357 | 34924 ft | 377 kts | 26° |
| 2026-04-26 05:31 | -5.96748 | -44.38027 | 34919 ft | 373 kts | 43° |
| 2026-04-26 05:32 | -5.95015 | -44.36122 | 34916 ft | 369 kts | 59° |
| 2026-04-26 05:32 | -5.93920 | -44.33809 | 34909 ft | 367 kts | 76° |
| 2026-04-26 05:32 | -5.93393 | -44.28684 | 34949 ft | 372 kts | 90° |
| 2026-04-26 05:33 | -5.93481 | -44.23485 | 34950 ft | 373 kts | 92° |
| 2026-04-26 05:33 | -5.93897 | -44.18308 | 34940 ft | 372 kts | 107° |
| 2026-04-26 05:34 | -5.94974 | -44.15955 | 34948 ft | 373 kts | 124° |
| 2026-04-26 05:34 | -5.96740 | -44.14045 | 34945 ft | 376 kts | 142° |
| 2026-04-26 05:34 | -5.99035 | -44.12797 | 34948 ft | 378 kts | 161° |
| 2026-04-26 05:34 | -6.01634 | -44.12366 | 34938 ft | 382 kts | 180° |
| 2026-04-26 05:35 | -6.04249 | -44.12822 | 34936 ft | 385 kts | 199° |
| 2026-04-26 05:35 | -6.06589 | -44.14140 | 34927 ft | 389 kts | 219° |
| 2026-04-26 05:35 | -6.08372 | -44.16179 | 34926 ft | 392 kts | 239° |
| 2026-04-26 05:35 | -6.09380 | -44.18730 | 34947 ft | 398 kts | 259° |
| 2026-04-26 05:36 | -6.09667 | -44.24315 | 34950 ft | 402 kts | 270° |
| 2026-04-26 05:36 | -6.09554 | -44.29946 | 34952 ft | 403 kts | 271° |
| 2026-04-26 05:37 | -6.09245 | -44.32733 | 34944 ft | 402 kts | 287° |
| 2026-04-26 05:37 | -6.08078 | -44.35266 | 34949 ft | 400 kts | 307° |
| 2026-04-26 05:37 | -6.06167 | -44.37260 | 34949 ft | 396 kts | 327° |
| 2026-04-26 05:37 | -6.03724 | -44.38479 | 34953 ft | 391 kts | 347° |
| 2026-04-26 05:38 | -6.01057 | -44.38783 | 34938 ft | 384 kts | 7° |
| 2026-04-26 05:38 | -5.98489 | -44.38196 | 34930 ft | 377 kts | 26° |
| 2026-04-26 05:38 | -5.96285 | -44.36837 | 34919 ft | 371 kts | 45° |
| 2026-04-26 05:38 | -5.94644 | -44.34860 | 34932 ft | 369 kts | 63° |
| 2026-04-26 05:39 | -5.93716 | -44.32467 | 34953 ft | 370 kts | 81° |
| 2026-04-26 05:39 | -5.93536 | -44.29893 | 34957 ft | 370 kts | 91° |
| 2026-04-26 05:39 | -5.93593 | -44.24703 | 34946 ft | 374 kts | 91° |
| 2026-04-26 05:40 | -5.93371 | -44.22078 | 34950 ft | 382 kts | 78° |
| 2026-04-26 05:40 | -5.92527 | -44.19552 | 34949 ft | 392 kts | 64° |
| 2026-04-26 05:40 | -5.91027 | -44.17228 | 34948 ft | 403 kts | 50° |
| 2026-04-26 05:40 | -5.89111 | -44.15070 | 34944 ft | 413 kts | 50° |
| 2026-04-26 05:41 | -5.85332 | -44.10637 | 34948 ft | 425 kts | 51° |
| 2026-04-26 05:41 | -5.81495 | -44.06048 | 34868 ft | 437 kts | 51° |
| 2026-04-26 05:42 | -5.79529 | -44.03706 | 34544 ft | 439 kts | 52° |
| 2026-04-26 05:42 | -5.77874 | -44.01124 | 33570 ft | 445 kts | 67° |
| 2026-04-26 05:42 | -5.76628 | -43.98299 | 33032 ft | 435 kts | 68° |
| 2026-04-26 05:42 | -5.75427 | -43.95558 | 32486 ft | 424 kts | 68° |
| 2026-04-26 05:43 | -5.74246 | -43.92871 | 31726 ft | 419 kts | 68° |
| 2026-04-26 05:43 | -5.73047 | -43.90158 | 30608 ft | 430 kts | 67° |
| 2026-04-26 05:43 | -5.71830 | -43.87416 | 29826 ft | 430 kts | 67° |
| 2026-04-26 05:43 | -5.70609 | -43.84685 | 29005 ft | 426 kts | 67° |
| 2026-04-26 05:44 | -5.69398 | -43.81981 | 28186 ft | 423 kts | 67° |
| 2026-04-26 05:44 | -5.68202 | -43.79307 | 27438 ft | 418 kts | 67° |
| 2026-04-26 05:44 | -5.67015 | -43.76654 | 26737 ft | 414 kts | 66° |
| 2026-04-26 05:44 | -5.65839 | -43.74027 | 26090 ft | 410 kts | 66° |
| 2026-04-26 05:45 | -5.64675 | -43.71428 | 25446 ft | 407 kts | 66° |
| 2026-04-26 05:45 | -5.63521 | -43.68847 | 24827 ft | 403 kts | 66° |
| 2026-04-26 05:45 | -5.62381 | -43.66288 | 24238 ft | 400 kts | 66° |
| 2026-04-26 05:45 | -5.61252 | -43.63753 | 23642 ft | 397 kts | 66° |
| 2026-04-26 05:46 | -5.60128 | -43.61229 | 22977 ft | 394 kts | 66° |
| 2026-04-26 05:46 | -5.59016 | -43.58732 | 22310 ft | 390 kts | 66° |
| 2026-04-26 05:46 | -5.57913 | -43.56264 | 21647 ft | 386 kts | 66° |
| 2026-04-26 05:46 | -5.56822 | -43.53822 | 20902 ft | 381 kts | 66° |
| 2026-04-26 05:47 | -5.55743 | -43.51402 | 20149 ft | 378 kts | 66° |
| 2026-04-26 05:47 | -5.54677 | -43.49007 | 19408 ft | 374 kts | 66° |
| 2026-04-26 05:47 | -5.53623 | -43.46642 | 18679 ft | 370 kts | 66° |
| 2026-04-26 05:47 | -5.52573 | -43.44299 | 17922 ft | 367 kts | 66° |
| 2026-04-26 05:48 | -5.51530 | -43.41976 | 17118 ft | 363 kts | 66° |
| 2026-04-26 05:48 | -5.50502 | -43.39682 | 16336 ft | 358 kts | 66° |
| 2026-04-26 05:48 | -5.49489 | -43.37417 | 15545 ft | 354 kts | 66° |
| 2026-04-26 05:48 | -5.48487 | -43.35173 | 14761 ft | 350 kts | 66° |
| 2026-04-26 05:49 | -5.47496 | -43.32961 | 13995 ft | 346 kts | 66° |
| 2026-04-26 05:49 | -5.45540 | -43.28598 | 12628 ft | 341 kts | 66° |
| 2026-04-26 05:49 | -5.44570 | -43.26434 | 12226 ft | 340 kts | 66° |
| 2026-04-26 05:50 | -5.43608 | -43.24278 | 11816 ft | 337 kts | 66° |
| 2026-04-26 05:50 | -5.42652 | -43.22135 | 11417 ft | 335 kts | 66° |
| 2026-04-26 05:50 | -5.41700 | -43.20005 | 11015 ft | 333 kts | 66° |
| 2026-04-26 05:50 | -5.40757 | -43.17894 | 10611 ft | 331 kts | 66° |
| 2026-04-26 05:51 | -5.39820 | -43.15800 | 10312 ft | 323 kts | 66° |
| 2026-04-26 05:51 | -5.38923 | -43.13803 | 10199 ft | 305 kts | 66° |
| 2026-04-26 05:51 | -5.38072 | -43.11908 | 9924 ft | 293 kts | 66° |
| 2026-04-26 05:51 | -5.37243 | -43.10059 | 9396 ft | 289 kts | 66° |
| 2026-04-26 05:52 | -5.36424 | -43.08228 | 8836 ft | 286 kts | 66° |
| 2026-04-26 05:52 | -5.35613 | -43.06415 | 8417 ft | 284 kts | 67° |
| 2026-04-26 05:52 | -5.34817 | -43.04639 | 8067 ft | 283 kts | 67° |
| 2026-04-26 05:52 | -5.34003 | -43.02815 | 7717 ft | 282 kts | 67° |
| 2026-04-26 05:53 | -5.33214 | -43.01049 | 7377 ft | 280 kts | 67° |
| 2026-04-26 05:53 | -5.32450 | -42.99342 | 7043 ft | 279 kts | 68° |
| 2026-04-26 05:53 | -5.31651 | -42.97555 | 6802 ft | 273 kts | 68° |
| 2026-04-26 05:53 | -5.30886 | -42.95855 | 6679 ft | 261 kts | 68° |
| 2026-04-26 05:54 | -5.30163 | -42.94253 | 6562 ft | 244 kts | 68° |
| 2026-04-26 05:54 | -5.29488 | -42.92758 | 6446 ft | 226 kts | 68° |
| 2026-04-26 05:54 | -5.28867 | -42.91380 | 6324 ft | 208 kts | 68° |
| 2026-04-26 05:54 | -5.28293 | -42.90100 | 6202 ft | 196 kts | 69° |
| 2026-04-26 05:55 | -5.27737 | -42.88877 | 5943 ft | 193 kts | 68° |
| 2026-04-26 05:55 | -5.27148 | -42.87651 | 5469 ft | 196 kts | 66° |
| 2026-04-26 05:55 | -5.26549 | -42.86432 | 5081 ft | 193 kts | 66° |
| 2026-04-26 05:55 | -5.25958 | -42.85235 | 4671 ft | 190 kts | 66° |
| 2026-04-26 05:56 | -5.25375 | -42.84050 | 4226 ft | 189 kts | 65° |
| 2026-04-26 05:56 | -5.24797 | -42.82872 | 3891 ft | 188 kts | 65° |
| 2026-04-26 05:56 | -5.24196 | -42.81702 | 3629 ft | 189 kts | 59° |
| 2026-04-26 05:56 | -5.23216 | -42.80879 | 3453 ft | 180 kts | 26° |
| 2026-04-26 05:57 | -5.22058 | -42.80683 | 3330 ft | 165 kts | 357° |
| 2026-04-26 05:57 | -5.20979 | -42.80802 | 3183 ft | 149 kts | 355° |
| 2026-04-26 05:57 | -5.19977 | -42.80907 | 2912 ft | 141 kts | 355° |
| 2026-04-26 05:57 | -5.19011 | -42.81009 | 2549 ft | 138 kts | 354° |
| 2026-04-26 05:58 | -5.18065 | -42.81107 | 2263 ft | 129 kts | 354° |
| 2026-04-26 05:58 | -5.17224 | -42.81195 | 2136 ft | 124 kts | 354° |
| 2026-04-26 05:58 | -5.16355 | -42.81285 | 2042 ft | 128 kts | 353° |
| 2026-04-26 05:58 | -5.15459 | -42.81368 | 1911 ft | 130 kts | 353° |
| 2026-04-26 05:59 | -5.14553 | -42.81481 | 1703 ft | 129 kts | 351° |
| 2026-04-26 05:59 | -5.13676 | -42.81578 | 1494 ft | 128 kts | 354° |
| 2026-04-26 05:59 | -5.12787 | -42.81677 | 1281 ft | 129 kts | 353° |
| 2026-04-26 05:59 | -5.11901 | -42.81769 | 1067 ft | 127 kts | 353° |
| 2026-04-26 06:00 | -5.11017 | -42.81851 | 894 ft | 128 kts | 354° |
| 2026-04-26 06:00 | -5.10124 | -42.81925 | 771 ft | 129 kts | 352° |
| 2026-04-26 06:00 | -5.09227 | -42.82030 | 633 ft | 129 kts | 349° |
| 2026-04-26 06:00 | -5.08328 | -42.82124 | 526 ft | 131 kts | 350° |
| 2026-04-26 06:01 | -5.07423 | -42.82225 | 360 ft | 131 kts | 350° |
| 2026-04-26 06:01 | -5.06531 | -42.82322 | 219 ft | 121 kts | 352° |
| 2026-04-26 06:01 | -5.05977 | -42.82376 | 216 ft | 37 kts | 354° |
| 2026-04-26 06:01 | -5.05841 | -42.82380 | 221 ft | 14 kts | 324° |
| 2026-04-26 06:02 | -5.05851 | -42.82398 | 220 ft | 5 kts | 184° |
| 2026-04-26 06:02 | -5.05923 | -42.82389 | 223 ft | 16 kts | 173° |
| 2026-04-26 06:02 | -5.06064 | -42.82369 | 216 ft | 24 kts | 172° |
| 2026-04-26 06:02 | -5.06236 | -42.82349 | 217 ft | 26 kts | 174° |
| 2026-04-26 06:03 | -5.06350 | -42.82326 | 222 ft | 12 kts | 143° |
| 2026-04-26 06:03 | -5.06363 | -42.82242 | 219 ft | 14 kts | 78° |
| 2026-04-26 06:03 | -5.06365 | -42.82223 | 216 ft | 3 kts | 106° |
| 2026-04-26 06:03 | -5.06367 | -42.82192 | 216 ft | 6 kts | 86° |
| 2026-04-26 06:04 | -5.06364 | -42.82171 | 219 ft | 1 kts | 83° |
| 2026-04-26 06:04 | -5.06364 | -42.82168 | 218 ft | 0 kts | 84° |